Time;durP1;ratioP1;P1;durP2;ratioP2;P2;SDS_P1;SDS_P2;PMS_P1;PMS_P2;Temp;Humidity;BMP_temperature;BMP_pressure;BME280_temperature;BME280_humidity;BME280_pressure;Samples;Min_cycle;Max_cycle;Signal;HPM_P1;HPM_P2
2021/05/26 00:02:21;;;;;;;5.83;3.07;;;10.80;99.90;;;;;;4425327;32;20166;-86
2021/05/26 00:04:48;;;;;;;8.07;2.90;;;10.70;99.90;;;;;;4425796;32;20212;-84
2021/05/26 00:07:15;;;;;;;7.47;3.00;;;10.70;99.90;;;;;;4425717;32;20184;-81
2021/05/26 00:09:42;;;;;;;5.27;2.97;;;10.60;99.90;;;;;;4427344;32;20242;-81
2021/05/26 00:12:10;;;;;;;6.60;2.80;;;10.70;99.90;;;;;;4433680;32;20179;-82
2021/05/26 00:14:37;;;;;;;5.37;3.03;;;10.70;99.90;;;;;;4435874;32;20208;-83
2021/05/26 00:17:05;;;;;;;5.60;3.13;;;10.70;99.90;;;;;;4437931;32;20202;-83
2021/05/26 00:19:32;;;;;;;5.07;2.67;;;10.60;99.90;;;;;;4435621;32;20295;-82
2021/05/26 00:21:59;;;;;;;4.97;3.03;;;10.70;99.90;;;;;;4437426;32;20142;-83
2021/05/26 00:24:26;;;;;;;4.43;2.77;;;10.60;99.90;;;;;;4435412;32;20170;-82
2021/05/26 00:26:53;;;;;;;6.77;3.00;;;10.50;99.90;;;;;;4435665;32;20229;-82
2021/05/26 00:29:19;;;;;;;4.90;2.70;;;10.60;99.90;;;;;;4435414;32;20196;-83
2021/05/26 00:31:46;;;;;;;5.60;2.60;;;10.50;99.90;;;;;;4436104;32;20203;-81
2021/05/26 00:34:13;;;;;;;6.57;2.80;;;10.40;99.90;;;;;;4431449;32;20155;-83
2021/05/26 00:36:40;;;;;;;5.00;2.70;;;10.40;99.90;;;;;;4430203;32;20200;-82
2021/05/26 00:39:07;;;;;;;4.73;2.90;;;10.40;99.90;;;;;;4433446;32;20217;-82
2021/05/26 00:41:34;;;;;;;7.43;3.17;;;10.40;99.90;;;;;;4432855;32;20150;-82
2021/05/26 00:44:01;;;;;;;6.27;2.90;;;10.40;99.90;;;;;;4434917;32;20143;-82
2021/05/26 00:46:28;;;;;;;6.23;2.83;;;10.30;99.90;;;;;;4437636;32;20150;-82
2021/05/26 00:48:55;;;;;;;4.50;2.57;;;10.30;99.90;;;;;;4434306;32;20155;-82
2021/05/26 00:51:22;;;;;;;4.67;2.87;;;10.30;99.90;;;;;;4434348;32;20217;-84
2021/05/26 00:53:49;;;;;;;5.50;2.80;;;10.30;99.90;;;;;;4434044;32;20546;-84
2021/05/26 00:56:16;;;;;;;4.97;2.93;;;10.30;99.90;;;;;;4435014;32;20155;-85
2021/05/26 00:58:42;;;;;;;4.37;2.57;;;10.20;99.90;;;;;;4437999;32;20228;-85
2021/05/26 01:01:09;;;;;;;6.80;2.80;;;10.10;99.90;;;;;;4438283;32;20155;-85
2021/05/26 01:03:36;;;;;;;5.57;2.80;;;10.00;99.90;;;;;;4436814;32;20442;-83
2021/05/26 01:06:03;;;;;;;3.90;2.57;;;10.10;99.90;;;;;;4433122;32;20185;-83
2021/05/26 01:08:30;;;;;;;5.03;2.67;;;10.00;99.90;;;;;;4429301;32;20151;-85
2021/05/26 01:10:57;;;;;;;4.30;2.60;;;10.00;99.90;;;;;;4433841;32;20165;-82
2021/05/26 01:13:25;;;;;;;5.60;2.57;;;9.90;99.90;;;;;;4433459;32;20194;-85
2021/05/26 01:15:52;;;;;;;4.93;2.60;;;9.90;99.90;;;;;;4436101;32;20194;-85
2021/05/26 01:18:21;;;;;;;5.17;2.87;;;9.80;99.90;;;;;;4433238;32;20143;-85
2021/05/26 01:20:49;;;;;;;5.43;2.60;;;9.80;99.90;;;;;;4424152;32;20204;-85
2021/05/26 01:23:17;;;;;;;4.77;2.37;;;9.70;99.90;;;;;;4435854;32;20183;-83
2021/05/26 01:25:46;;;;;;;6.17;2.50;;;9.80;99.90;;;;;;4435281;32;20222;-85
2021/05/26 01:28:14;;;;;;;6.87;2.33;;;9.80;99.90;;;;;;4436440;32;20139;-85
2021/05/26 01:30:41;;;;;;;4.17;2.40;;;9.80;99.90;;;;;;4432252;32;20150;-83
2021/05/26 01:33:08;;;;;;;4.00;2.47;;;9.70;99.90;;;;;;4428094;32;20398;-83
2021/05/26 01:35:38;;;;;;;4.07;2.40;;;9.60;99.90;;;;;;4428418;32;20158;-84
2021/05/26 01:38:05;;;;;;;4.13;2.50;;;9.60;99.90;;;;;;4432024;32;20159;-84
2021/05/26 01:40:32;;;;;;;5.43;2.17;;;9.50;99.90;;;;;;4434669;32;20154;-84
2021/05/26 01:42:59;;;;;;;4.30;2.40;;;9.50;99.90;;;;;;4433160;32;20163;-85
2021/05/26 01:45:26;;;;;;;4.40;2.40;;;9.50;99.90;;;;;;4432963;32;20162;-83
2021/05/26 01:47:53;;;;;;;3.87;2.30;;;9.50;99.90;;;;;;4431189;32;20171;-83
2021/05/26 01:50:23;;;;;;;4.83;2.47;;;9.50;99.90;;;;;;4431854;32;20171;-83
2021/05/26 01:52:53;;;;;;;4.47;2.53;;;9.40;99.90;;;;;;4433179;32;20155;-83
2021/05/26 01:55:20;;;;;;;6.80;2.57;;;9.30;99.90;;;;;;4437095;32;20152;-83
2021/05/26 01:57:47;;;;;;;6.00;2.30;;;9.20;99.90;;;;;;4438329;32;20159;-83
2021/05/26 02:00:17;;;;;;;4.43;2.30;;;9.20;99.90;;;;;;4439782;32;20155;-84
2021/05/26 02:02:44;;;;;;;4.33;2.30;;;9.20;99.90;;;;;;4439491;32;20151;-85
2021/05/26 02:05:11;;;;;;;5.73;2.30;;;9.10;99.90;;;;;;4438465;32;20203;-83
2021/05/26 02:07:38;;;;;;;3.40;2.40;;;9.10;99.90;;;;;;4439201;32;20184;-85
2021/05/26 02:10:08;;;;;;;4.67;2.40;;;9.10;99.90;;;;;;4427129;32;20127;-84
2021/05/26 02:12:39;;;;;;;5.30;2.63;;;9.10;99.90;;;;;;4433079;32;20181;-83
2021/05/26 02:15:09;;;;;;;3.20;2.33;;;9.00;99.90;;;;;;4427497;32;20473;-84
2021/05/26 02:17:36;;;;;;;6.87;2.60;;;9.00;99.90;;;;;;4428065;32;20448;-84
2021/05/26 02:20:06;;;;;;;2.50;2.20;;;9.10;99.90;;;;;;4428585;32;20194;-85
2021/05/26 02:22:34;;;;;;;4.13;2.37;;;9.00;99.90;;;;;;4427847;32;20420;-84
2021/05/26 02:25:03;;;;;;;4.43;2.60;;;9.00;99.90;;;;;;4427678;32;20167;-84
2021/05/26 02:27:30;;;;;;;3.67;2.20;;;8.90;99.90;;;;;;4427566;32;20189;-84
2021/05/26 02:29:57;;;;;;;4.13;2.30;;;8.90;99.90;;;;;;4427012;32;20178;-84
2021/05/26 02:32:25;;;;;;;3.70;2.23;;;8.80;99.90;;;;;;4427631;32;20142;-84
2021/05/26 02:34:52;;;;;;;3.80;2.63;;;8.90;99.90;;;;;;4426341;32;20182;-84
2021/05/26 02:37:19;;;;;;;3.77;2.47;;;8.90;99.90;;;;;;4413402;32;20496;-84
2021/05/26 02:39:46;;;;;;;5.63;2.60;;;8.90;99.90;;;;;;4427067;32;20147;-84
2021/05/26 02:42:13;;;;;;;4.17;2.40;;;8.80;99.90;;;;;;4427059;32;20155;-84
2021/05/26 02:44:40;;;;;;;5.13;2.40;;;8.80;99.90;;;;;;4427867;32;20169;-83
2021/05/26 02:47:07;;;;;;;3.23;2.40;;;8.70;99.90;;;;;;4427145;32;20190;-84
2021/05/26 02:49:34;;;;;;;3.17;2.30;;;8.70;99.90;;;;;;4427453;32;20151;-83
2021/05/26 02:52:01;;;;;;;3.40;2.13;;;8.70;99.90;;;;;;4427334;32;20170;-84
2021/05/26 02:54:28;;;;;;;3.53;2.30;;;8.80;99.90;;;;;;4428540;32;20190;-83
2021/05/26 02:56:55;;;;;;;4.70;2.30;;;8.80;99.90;;;;;;4429914;32;20150;-84
2021/05/26 02:59:22;;;;;;;3.83;2.10;;;8.80;99.90;;;;;;4429964;32;20178;-84
2021/05/26 03:01:49;;;;;;;3.77;2.57;;;8.80;99.90;;;;;;4429389;32;20150;-83
2021/05/26 03:04:16;;;;;;;3.97;2.30;;;8.70;99.90;;;;;;4429219;32;20146;-86
2021/05/26 03:06:43;;;;;;;4.67;2.40;;;8.70;99.90;;;;;;4428572;32;20186;-85
2021/05/26 03:09:09;;;;;;;2.87;2.10;;;8.70;99.90;;;;;;4428215;32;20154;-84
2021/05/26 03:11:36;;;;;;;2.97;2.20;;;8.70;99.90;;;;;;4427281;32;20191;-86
2021/05/26 03:14:03;;;;;;;5.17;2.27;;;8.70;99.90;;;;;;4426444;32;20162;-86
2021/05/26 03:16:30;;;;;;;3.80;2.00;;;8.70;99.90;;;;;;4428905;32;20442;-86
2021/05/26 03:18:57;;;;;;;5.43;2.53;;;8.60;99.90;;;;;;4428191;32;20484;-85
2021/05/26 03:21:24;;;;;;;2.93;2.07;;;8.70;99.90;;;;;;4427404;32;20143;-85
2021/05/26 03:23:51;;;;;;;3.33;2.33;;;8.70;99.90;;;;;;4427824;32;20166;-86
2021/05/26 03:26:18;;;;;;;5.37;2.20;;;8.80;99.90;;;;;;4427403;32;20150;-86
2021/05/26 03:28:45;;;;;;;3.63;2.27;;;8.80;99.90;;;;;;4426629;32;20150;-86
2021/05/26 03:31:12;;;;;;;3.40;2.00;;;8.80;99.90;;;;;;4426671;32;20211;-86
2021/05/26 03:33:39;;;;;;;3.73;2.50;;;8.80;99.90;;;;;;4426705;32;20200;-86
2021/05/26 03:36:07;;;;;;;4.67;2.00;;;8.70;99.90;;;;;;4426124;32;20500;-86
2021/05/26 03:38:34;;;;;;;4.87;2.30;;;8.70;99.90;;;;;;4426436;32;20163;-86
2021/05/26 03:41:01;;;;;;;2.93;2.00;;;8.80;99.90;;;;;;4425562;32;20485;-85
2021/05/26 03:43:28;;;;;;;3.30;2.27;;;8.80;99.90;;;;;;4425716;32;20214;-85
2021/05/26 03:45:55;;;;;;;3.47;2.27;;;8.90;99.90;;;;;;4414793;32;20222;-85
2021/05/26 03:48:22;;;;;;;6.63;2.10;;;8.80;99.90;;;;;;4425751;32;20169;-85
2021/05/26 03:50:49;;;;;;;3.50;2.00;;;8.90;99.90;;;;;;4425587;32;20216;-85
2021/05/26 03:53:16;;;;;;;5.80;2.00;;;9.00;99.90;;;;;;4426884;32;20147;-85
2021/05/26 03:55:43;;;;;;;2.90;1.80;;;9.10;99.90;;;;;;4425622;32;20200;-85
2021/05/26 03:58:11;;;;;;;4.97;2.10;;;9.10;99.90;;;;;;4426780;32;20534;-85
2021/05/26 04:00:38;;;;;;;3.83;1.90;;;9.10;99.90;;;;;;4426310;32;20143;-85
2021/05/26 04:03:05;;;;;;;4.23;1.70;;;9.20;99.90;;;;;;4426787;32;20173;-84
2021/05/26 04:05:32;;;;;;;3.13;1.60;;;9.20;99.90;;;;;;4424568;32;20233;-84
2021/05/26 04:07:59;;;;;;;2.27;1.80;;;9.30;99.90;;;;;;4424981;32;20172;-84
2021/05/26 04:10:25;;;;;;;3.53;1.90;;;9.30;99.90;;;;;;4425279;32;20384;-85
2021/05/26 04:12:52;;;;;;;3.43;1.87;;;9.30;99.90;;;;;;4426442;32;20216;-85
2021/05/26 04:15:19;;;;;;;2.90;1.80;;;9.40;99.90;;;;;;4425820;32;20496;-84
2021/05/26 04:17:46;;;;;;;3.13;1.73;;;9.40;99.90;;;;;;4424798;32;20418;-85
2021/05/26 04:20:13;;;;;;;3.00;1.80;;;9.50;99.90;;;;;;4425238;32;20504;-84
2021/05/26 04:22:40;;;;;;;3.67;1.73;;;9.40;99.90;;;;;;4425141;32;20530;-84
2021/05/26 04:25:09;;;;;;;3.40;1.87;;;9.50;99.90;;;;;;4425155;32;20534;-84
2021/05/26 04:27:35;;;;;;;2.93;1.50;;;9.50;99.90;;;;;;4425129;32;20208;-84
2021/05/26 04:30:04;;;;;;;2.87;1.60;;;9.60;99.90;;;;;;4426507;32;20169;-84
2021/05/26 04:32:31;;;;;;;3.27;1.80;;;9.60;99.90;;;;;;4425193;32;20143;-83
2021/05/26 04:34:59;;;;;;;3.87;1.70;;;9.70;99.90;;;;;;4426682;32;20151;-83
2021/05/26 04:37:25;;;;;;;5.20;2.00;;;9.80;99.90;;;;;;4424776;32;20163;-84
2021/05/26 04:39:53;;;;;;;4.53;1.80;;;9.80;99.90;;;;;;4425067;32;20436;-84
2021/05/26 04:42:20;;;;;;;4.13;1.57;;;9.90;99.90;;;;;;4424424;32;20167;-82
2021/05/26 04:44:47;;;;;;;3.30;1.80;;;10.10;99.90;;;;;;4424938;32;20215;-84
2021/05/26 04:47:14;;;;;;;3.00;1.70;;;10.20;99.90;;;;;;4424743;32;20181;-84
2021/05/26 04:49:41;;;;;;;2.40;1.50;;;10.20;99.90;;;;;;4424715;32;20194;-83
2021/05/26 04:52:08;;;;;;;2.57;1.50;;;10.20;99.90;;;;;;4425320;32;20219;-83
2021/05/26 04:54:35;;;;;;;2.60;1.57;;;10.30;99.90;;;;;;4426232;32;20173;-82
2021/05/26 04:57:02;;;;;;;2.50;1.50;;;10.40;99.90;;;;;;4424609;32;20166;-83
2021/05/26 04:59:29;;;;;;;2.00;1.30;;;10.40;99.90;;;;;;4424609;32;20193;-75
2021/05/26 05:01:56;;;;;;;2.47;1.40;;;10.40;99.90;;;;;;4424604;32;20147;-76
2021/05/26 05:04:23;;;;;;;3.47;1.40;;;10.50;99.90;;;;;;4425330;32;20178;-75
2021/05/26 05:06:50;;;;;;;3.57;1.50;;;10.60;99.90;;;;;;4424395;32;20427;-77
2021/05/26 05:09:17;;;;;;;2.03;1.47;;;10.60;99.90;;;;;;4424424;32;20416;-77
2021/05/26 05:11:45;;;;;;;2.30;1.30;;;10.70;99.90;;;;;;4424006;32;20151;-76
2021/05/26 05:14:12;;;;;;;3.33;1.23;;;10.70;99.90;;;;;;4424571;32;20166;-78
2021/05/26 05:16:39;;;;;;;1.43;1.20;;;10.70;99.90;;;;;;4424333;32;20221;-77
2021/05/26 05:19:06;;;;;;;5.97;1.40;;;10.80;99.90;;;;;;4424472;32;20196;-77
2021/05/26 05:21:33;;;;;;;2.23;1.60;;;10.90;99.90;;;;;;4424468;32;20547;-77
2021/05/26 05:24:00;;;;;;;3.47;1.30;;;10.90;99.90;;;;;;4424671;32;20203;-77
2021/05/26 05:26:27;;;;;;;3.70;1.40;;;11.00;99.90;;;;;;4423742;32;20163;-76
2021/05/26 05:29:00;;;;;;;1.60;1.40;;;11.10;99.90;;;;;;4425290;32;20169;-77
2021/05/26 05:31:29;;;;;;;2.27;1.40;;;11.10;99.90;;;;;;4424143;32;20147;-76
2021/05/26 05:33:56;;;;;;;4.37;1.40;;;11.10;99.90;;;;;;4424286;32;20195;-76
2021/05/26 05:36:23;;;;;;;2.53;1.20;;;11.30;99.90;;;;;;4424357;32;20181;-77
2021/05/26 05:38:50;;;;;;;3.33;1.80;;;11.30;99.90;;;;;;4425502;32;20204;-76
2021/05/26 05:41:17;;;;;;;2.77;1.30;;;11.30;99.90;;;;;;4424145;32;20159;-74
2021/05/26 05:43:44;;;;;;;3.47;1.30;;;11.40;99.90;;;;;;4410651;32;20146;-77
2021/05/26 05:46:11;;;;;;;3.03;1.20;;;11.40;99.90;;;;;;4424077;32;20237;-77
2021/05/26 05:48:38;;;;;;;1.67;1.10;;;11.40;99.90;;;;;;4425535;32;20200;-76
2021/05/26 05:51:05;;;;;;;3.33;1.40;;;11.50;99.90;;;;;;4424376;32;20204;-77
2021/05/26 05:53:32;;;;;;;1.77;1.27;;;11.50;99.90;;;;;;4424377;32;20176;-77
2021/05/26 05:56:01;;;;;;;1.77;1.30;;;11.60;99.90;;;;;;4424193;32;20143;-77
2021/05/26 05:58:28;;;;;;;2.47;1.20;;;11.60;99.90;;;;;;4425587;32;20449;-77
2021/05/26 06:00:55;;;;;;;2.60;1.40;;;11.60;99.90;;;;;;4423706;32;20270;-76
2021/05/26 06:03:22;;;;;;;3.37;1.30;;;11.70;99.90;;;;;;4424338;32;20394;-76
2021/05/26 06:05:49;;;;;;;3.07;1.17;;;11.90;99.90;;;;;;4424001;32;20167;-76
2021/05/26 06:08:16;;;;;;;1.67;1.10;;;11.90;99.90;;;;;;4424081;32;20224;-76
2021/05/26 06:10:43;;;;;;;2.30;1.00;;;12.00;99.90;;;;;;4424047;32;20182;-76
2021/05/26 06:13:10;;;;;;;4.20;0.93;;;12.00;99.90;;;;;;4423811;32;20212;-76
2021/05/26 06:15:37;;;;;;;1.10;0.90;;;12.20;99.90;;;;;;4424030;32;20143;-76
2021/05/26 06:18:04;;;;;;;1.03;0.83;;;12.20;99.90;;;;;;4423987;32;20143;-76
2021/05/26 06:20:32;;;;;;;1.90;1.00;;;12.30;99.90;;;;;;4423846;32;20139;-76
2021/05/26 06:22:59;;;;;;;1.73;0.83;;;12.40;99.90;;;;;;4425205;32;20166;-74
2021/05/26 06:25:26;;;;;;;1.20;0.90;;;12.40;99.90;;;;;;4423707;32;20162;-76
2021/05/26 06:27:53;;;;;;;1.00;0.70;;;12.60;99.90;;;;;;4422921;32;20460;-76
2021/05/26 06:30:21;;;;;;;1.60;0.80;;;12.70;99.90;;;;;;4424991;32;20147;-77
2021/05/26 06:32:48;;;;;;;1.00;0.90;;;12.80;99.90;;;;;;4426215;32;20422;-77
2021/05/26 06:35:15;;;;;;;1.00;0.73;;;12.70;99.90;;;;;;4428002;32;20143;-76
2021/05/26 06:37:42;;;;;;;3.23;0.70;;;12.80;99.90;;;;;;4426419;32;20198;-77
2021/05/26 06:40:10;;;;;;;2.13;0.80;;;12.90;99.90;;;;;;4427988;32;20189;-77
2021/05/26 06:42:42;;;;;;;1.57;0.77;;;13.00;99.90;;;;;;4427979;32;20192;-77
2021/05/26 06:45:10;;;;;;;1.73;0.73;;;13.10;99.90;;;;;;4426446;32;20481;-77
2021/05/26 06:47:37;;;;;;;1.87;0.80;;;13.10;99.90;;;;;;4426280;32;20159;-77
2021/05/26 06:50:05;;;;;;;1.30;0.83;;;13.30;99.90;;;;;;4426468;32;20201;-76
2021/05/26 06:52:32;;;;;;;2.17;0.90;;;13.30;99.90;;;;;;4426124;32;20193;-77
2021/05/26 06:55:06;;;;;;;0.80;0.80;;;13.40;99.60;;;;;;4427753;32;20180;-77
2021/05/26 06:57:33;;;;;;;1.87;0.90;;;13.50;99.80;;;;;;4427295;32;20150;-77
2021/05/26 06:59:59;;;;;;;1.93;0.80;;;13.60;99.20;;;;;;4426279;32;20160;-76
2021/05/26 07:02:26;;;;;;;2.07;1.00;;;13.70;98.30;;;;;;4426230;32;20151;-75
2021/05/26 07:04:53;;;;;;;2.40;1.00;;;13.60;98.50;;;;;;4427503;32;20163;-77
2021/05/26 07:07:20;;;;;;;1.30;0.80;;;13.70;98.40;;;;;;4425780;32;20182;-77
2021/05/26 07:09:47;;;;;;;1.13;0.80;;;13.60;97.60;;;;;;4425222;32;20156;-78
2021/05/26 07:12:14;;;;;;;1.70;0.83;;;13.80;97.50;;;;;;4425340;32;20435;-77
2021/05/26 07:14:42;;;;;;;2.20;1.10;;;13.90;96.60;;;;;;4425750;32;20493;-77
2021/05/26 07:17:08;;;;;;;2.10;0.90;;;14.00;95.60;;;;;;4426302;32;20154;-78
2021/05/26 07:19:35;;;;;;;1.50;0.80;;;14.00;94.10;;;;;;4426154;32;20151;-78
2021/05/26 07:22:03;;;;;;;1.57;0.80;;;14.00;94.60;;;;;;4426197;32;20254;-78
2021/05/26 07:24:30;;;;;;;2.67;0.70;;;14.00;94.70;;;;;;4426049;32;20543;-78
2021/05/26 07:26:56;;;;;;;1.43;0.80;;;13.80;94.30;;;;;;4427342;32;20198;-77
2021/05/26 07:29:23;;;;;;;1.70;0.83;;;13.60;94.40;;;;;;4427397;32;20214;-76
2021/05/26 07:31:51;;;;;;;1.87;0.73;;;13.60;93.20;;;;;;4427349;32;20142;-77
2021/05/26 07:34:18;;;;;;;1.33;0.80;;;13.70;92.90;;;;;;4425118;32;20526;-76
2021/05/26 07:36:44;;;;;;;1.67;0.77;;;13.70;92.80;;;;;;4425816;32;20193;-76
2021/05/26 07:39:11;;;;;;;0.93;0.80;;;13.80;93.20;;;;;;4425747;32;20465;-76
2021/05/26 07:41:39;;;;;;;3.90;0.87;;;14.00;93.60;;;;;;4426612;32;20142;-77
2021/05/26 07:44:06;;;;;;;1.03;0.60;;;14.20;92.70;;;;;;4425753;32;20294;-76
2021/05/26 07:46:34;;;;;;;1.57;0.83;;;14.10;91.70;;;;;;4426728;32;20177;-78
2021/05/26 07:49:01;;;;;;;2.33;0.97;;;14.10;91.20;;;;;;4425622;32;20452;-76
2021/05/26 07:51:29;;;;;;;1.57;0.70;;;14.20;91.80;;;;;;4427060;32;20146;-78
2021/05/26 07:53:57;;;;;;;1.57;1.00;;;14.30;92.70;;;;;;4424809;32;20146;-78
2021/05/26 07:56:24;;;;;;;1.43;0.87;;;14.40;92.40;;;;;;4423602;32;20205;-77
2021/05/26 07:58:51;;;;;;;2.80;1.07;;;14.40;92.40;;;;;;4425480;32;20158;-78
2021/05/26 08:01:18;;;;;;;1.97;0.93;;;14.60;93.60;;;;;;4425331;32;20508;-77
2021/05/26 08:03:45;;;;;;;2.50;1.30;;;14.70;93.30;;;;;;4426929;32;20151;-77
2021/05/26 08:06:13;;;;;;;2.03;1.10;;;14.80;91.20;;;;;;4425975;32;20218;-77
2021/05/26 08:08:40;;;;;;;3.53;1.00;;;14.80;90.90;;;;;;4425048;32;20208;-78
2021/05/26 08:11:07;;;;;;;1.93;1.10;;;14.80;91.00;;;;;;4426358;32;20404;-77
2021/05/26 08:13:35;;;;;;;2.67;1.10;;;14.90;90.70;;;;;;4425685;32;20182;-77
2021/05/26 08:16:02;;;;;;;2.37;1.10;;;14.80;90.70;;;;;;4426091;32;20143;-76
2021/05/26 08:18:29;;;;;;;4.47;1.00;;;14.70;90.30;;;;;;4425080;32;20509;-75
2021/05/26 08:20:56;;;;;;;2.40;1.00;;;15.00;90.60;;;;;;4425122;32;20150;-77
2021/05/26 08:23:25;;;;;;;5.27;1.20;;;14.90;89.50;;;;;;4425338;32;20221;-78
2021/05/26 08:25:52;;;;;;;3.87;1.00;;;15.10;89.90;;;;;;4424790;32;20162;-78
2021/05/26 08:28:20;;;;;;;2.20;1.10;;;15.50;87.70;;;;;;4425370;32;20181;-78
2021/05/26 08:30:47;;;;;;;2.47;0.90;;;15.90;86.00;;;;;;4425523;32;20349;-78
2021/05/26 08:33:14;;;;;;;3.30;1.07;;;16.10;81.60;;;;;;4424222;32;20237;-77
2021/05/26 08:35:41;;;;;;;2.67;1.00;;;16.40;82.10;;;;;;4424150;32;20441;-77
2021/05/26 08:38:08;;;;;;;1.47;0.90;;;16.20;79.30;;;;;;4424010;32;20197;-77
2021/05/26 08:40:35;;;;;;;2.13;1.27;;;16.20;80.00;;;;;;4424607;32;20216;-77
2021/05/26 08:43:03;;;;;;;2.80;0.90;;;16.00;79.70;;;;;;4424664;32;20360;-77
2021/05/26 08:45:30;;;;;;;5.07;1.10;;;16.00;78.80;;;;;;4424441;32;20147;-77
2021/05/26 08:47:59;;;;;;;1.57;0.80;;;15.70;79.80;;;;;;4426135;32;20159;-77
2021/05/26 08:50:26;;;;;;;3.30;1.00;;;15.50;80.00;;;;;;4424679;32;20161;-77
2021/05/26 08:52:53;;;;;;;1.97;0.90;;;15.50;78.80;;;;;;4424412;32;20222;-77
2021/05/26 08:55:31;;;;;;;3.20;0.90;;;15.50;80.20;;;;;;4424175;32;20189;-84
2021/05/26 08:57:59;;;;;;;3.07;1.10;;;15.50;80.00;;;;;;4418955;32;20158;-83
2021/05/26 09:00:26;;;;;;;3.37;1.03;;;15.90;80.30;;;;;;4424133;32;20154;-82
2021/05/26 09:02:54;;;;;;;1.83;0.90;;;16.10;78.70;;;;;;4423312;32;20181;-84
2021/05/26 09:05:27;;;;;;;1.50;0.93;;;15.90;78.50;;;;;;4425539;32;20179;-84
2021/05/26 09:07:55;;;;;;;3.53;1.17;;;15.80;79.90;;;;;;4425930;32;20450;-83
2021/05/26 09:10:23;;;;;;;3.20;0.90;;;16.20;79.90;;;;;;4423354;32;20263;-76
2021/05/26 09:12:55;;;;;;;2.63;1.00;;;16.50;76.10;;;;;;4423506;32;20208;-77
2021/05/26 09:15:22;;;;;;;2.63;1.00;;;16.60;76.50;;;;;;4423301;32;20183;-78
2021/05/26 09:17:57;;;;;;;2.63;1.13;;;16.90;77.10;;;;;;4423439;32;20185;-77
2021/05/26 09:20:27;;;;;;;2.37;1.00;;;17.10;73.00;;;;;;4424236;32;20150;-77
2021/05/26 09:23:12;;;;;;;1.87;0.90;;;17.20;71.10;;;;;;4412714;32;20151;-76
2021/05/26 09:25:46;;;;;;;1.73;0.90;;;17.20;72.60;;;;;;4423635;32;20497;-79
2021/05/26 09:28:28;;;;;;;2.27;1.00;;;17.20;70.50;;;;;;4423999;32;20154;-79
2021/05/26 09:31:07;;;;;;;2.17;1.37;;;17.20;72.30;;;;;;4424645;32;20185;-74
2021/05/26 09:33:45;;;;;;;2.77;1.20;;;17.30;73.60;;;;;;4421177;32;20154;-75
2021/05/26 09:36:13;;;;;;;2.90;0.90;;;17.60;70.30;;;;;;4424390;32;20534;-74
2021/05/26 09:38:48;;;;;;;2.50;1.20;;;17.80;69.80;;;;;;4424183;32;20165;-74
2021/05/26 09:41:34;;;;;;;2.83;1.20;;;17.90;69.50;;;;;;4410632;32;20240;-74
2021/05/26 09:44:14;;;;;;;2.40;1.00;;;17.90;69.30;;;;;;4409119;32;20186;-77
2021/05/26 09:46:43;;;;;;;2.10;1.20;;;17.80;69.00;;;;;;4409015;32;20197;-75
2021/05/26 09:49:18;;;;;;;1.90;0.93;;;17.60;68.90;;;;;;4408744;32;20155;-77
2021/05/26 09:51:51;;;;;;;3.50;1.20;;;17.60;70.70;;;;;;4409172;32;20492;-76
2021/05/26 09:54:25;;;;;;;2.93;1.20;;;18.00;70.20;;;;;;4408876;32;20445;-80
2021/05/26 09:57:02;;;;;;;3.40;1.00;;;18.50;68.10;;;;;;4408921;32;20177;-73
2021/05/26 09:59:31;;;;;;;3.23;1.20;;;18.40;66.70;;;;;;4415845;32;20163;-75
2021/05/26 10:01:58;;;;;;;2.37;1.20;;;18.80;66.20;;;;;;4423445;32;20163;-75
2021/05/26 10:04:26;;;;;;;5.07;1.07;;;18.30;64.00;;;;;;4424302;32;20292;-74
2021/05/26 10:07:04;;;;;;;5.63;1.03;;;17.90;65.40;;;;;;4428326;32;20469;-74
2021/05/26 10:09:33;;;;;;;3.07;1.33;;;18.00;64.60;;;;;;4412718;32;20197;-76
2021/05/26 10:12:02;;;;;;;2.00;0.93;;;18.20;64.10;;;;;;4426509;32;20226;-76
2021/05/26 10:14:33;;;;;;;3.23;1.00;;;18.60;62.90;;;;;;4427008;32;20189;-74
2021/05/26 10:17:08;;;;;;;3.80;1.07;;;19.00;60.40;;;;;;4428367;32;20209;-76
2021/05/26 10:19:35;;;;;;;2.60;1.10;;;19.40;60.60;;;;;;4426907;32;20437;-76
2021/05/26 10:22:03;;;;;;;3.10;1.10;;;19.60;59.80;;;;;;4428272;32;20154;-76
2021/05/26 10:24:32;;;;;;;1.77;0.90;;;19.80;60.20;;;;;;4428122;32;20155;-75
2021/05/26 10:27:00;;;;;;;2.40;1.20;;;19.80;57.70;;;;;;4426657;32;20208;-77
2021/05/26 10:29:39;;;;;;;2.30;1.00;;;19.50;57.40;;;;;;4426819;32;20147;-77
2021/05/26 10:32:07;;;;;;;3.10;1.20;;;19.20;58.50;;;;;;4426695;32;20493;-77
2021/05/26 10:34:46;;;;;;;1.67;0.90;;;19.50;59.10;;;;;;4425859;32;20424;-77
2021/05/26 10:37:24;;;;;;;2.60;1.00;;;19.80;59.30;;;;;;4423553;32;20214;-78
2021/05/26 10:39:52;;;;;;;3.50;1.20;;;20.20;57.80;;;;;;4423112;32;20200;-77
2021/05/26 10:42:25;;;;;;;3.90;1.00;;;20.00;57.50;;;;;;4420588;32;20150;-77
2021/05/26 10:45:06;;;;;;;3.67;1.13;;;20.30;58.60;;;;;;4418570;32;20219;-78
2021/05/26 10:47:39;;;;;;;3.37;1.27;;;20.50;57.30;;;;;;4419665;32;20248;-77
2021/05/26 10:50:14;;;;;;;2.63;1.00;;;20.40;57.50;;;;;;4411500;32;20190;-77
2021/05/26 10:52:56;;;;;;;3.27;0.90;;;20.50;55.60;;;;;;4424165;32;20176;-76
2021/05/26 10:55:43;;;;;;;4.60;1.17;;;20.40;55.10;;;;;;4422795;32;20150;-77
2021/05/26 10:58:36;;;;;;;3.20;1.07;;;20.50;55.20;;;;;;4420596;32;20182;-77
2021/05/26 11:01:03;;;;;;;2.10;0.77;;;20.60;54.70;;;;;;4422123;32;20186;-77
2021/05/26 11:03:35;;;;;;;2.50;0.97;;;20.80;52.40;;;;;;4427181;32;20146;-78
2021/05/26 11:06:05;;;;;;;3.70;0.90;;;21.30;52.50;;;;;;4425619;32;20210;-78
2021/05/26 11:08:32;;;;;;;2.37;0.90;;;21.50;51.60;;;;;;4425982;32;20197;-77
2021/05/26 11:14:02;;;;;;;5.57;1.10;;;21.50;50.20;;;;;;4425886;32;20159;-76
2021/05/26 11:17:01;;;;;;;3.50;0.90;;;20.90;51.30;;;;;;4427587;32;20155;-76
2021/05/26 11:19:30;;;;;;;3.37;1.13;;;21.00;50.80;;;;;;4425453;32;20550;-77
2021/05/26 11:22:14;;;;;;;3.07;1.10;;;21.30;50.90;;;;;;4425671;32;20154;-76
2021/05/26 11:24:48;;;;;;;4.53;1.00;;;21.50;51.80;;;;;;4425829;32;20177;-77
2021/05/26 11:27:28;;;;;;;4.00;1.00;;;22.10;50.20;;;;;;4425868;32;20510;-77
2021/05/26 11:29:59;;;;;;;3.70;0.90;;;22.30;50.20;;;;;;4425633;32;20182;-77
2021/05/26 11:32:26;;;;;;;2.10;0.80;;;22.20;48.00;;;;;;4426280;32;20237;-77
2021/05/26 11:34:55;;;;;;;2.53;1.20;;;21.90;49.00;;;;;;4425619;32;20204;-77
2021/05/26 11:37:28;;;;;;;3.47;0.90;;;21.70;49.90;;;;;;4425756;32;20181;-78
2021/05/26 11:39:55;;;;;;;3.37;1.00;;;21.00;51.00;;;;;;4425478;32;20196;-78
2021/05/26 11:42:26;;;;;;;2.20;0.97;;;20.80;52.30;;;;;;4425126;32;20154;-78
2021/05/26 11:44:54;;;;;;;2.27;0.90;;;20.70;52.90;;;;;;4426839;32;20184;-77
2021/05/26 11:47:37;;;;;;;5.43;1.27;;;20.70;51.80;;;;;;4425512;32;20543;-78
2021/05/26 11:50:26;;;;;;;1.80;0.90;;;20.80;52.60;;;;;;4424667;32;20199;-77
2021/05/26 11:53:02;;;;;;;4.77;0.90;;;21.10;51.60;;;;;;4424636;32;20215;-77
2021/05/26 11:55:30;;;;;;;5.10;1.00;;;21.80;50.20;;;;;;4426451;32;20177;-76
2021/05/26 11:57:57;;;;;;;3.97;1.10;;;22.50;48.30;;;;;;4426299;32;20151;-77
2021/05/26 12:00:28;;;;;;;4.00;1.07;;;22.10;48.00;;;;;;4425256;32;20178;-75
2021/05/26 12:02:58;;;;;;;4.03;0.87;;;21.90;48.50;;;;;;4425468;32;20207;-73
2021/05/26 12:05:52;;;;;;;3.13;1.10;;;22.30;48.60;;;;;;4426224;32;20158;-73
2021/05/26 12:08:31;;;;;;;3.10;1.00;;;23.10;47.40;;;;;;4427223;32;20159;-75
2021/05/26 12:11:14;;;;;;;2.80;0.95;;;23.30;45.90;;;;;;4425225;32;20170;-76
2021/05/26 12:13:44;;;;;;;2.70;0.90;;;23.10;45.70;;;;;;4424740;32;20515;-75
2021/05/26 12:16:13;;;;;;;3.13;1.00;;;23.30;44.70;;;;;;4425234;32;20210;-76
2021/05/26 12:18:49;;;;;;;2.33;0.83;;;23.40;43.60;;;;;;4426059;32;20170;-75
2021/05/26 12:21:16;;;;;;;3.33;0.90;;;22.50;45.20;;;;;;4425938;32;20230;-74
2021/05/26 12:23:45;;;;;;;2.83;1.00;;;22.30;46.00;;;;;;4426306;32;20151;-75
2021/05/26 12:26:23;;;;;;;3.40;1.07;;;22.60;46.10;;;;;;4426563;32;20172;-75
2021/05/26 12:28:52;;;;;;;3.47;1.10;;;22.90;46.10;;;;;;4424582;32;20198;-74
2021/05/26 12:31:19;;;;;;;1.50;0.77;;;23.30;45.50;;;;;;4425084;32;20190;-74
2021/05/26 12:33:50;;;;;;;4.00;1.07;;;23.20;44.60;;;;;;4424554;32;20150;-73
2021/05/26 12:36:18;;;;;;;2.60;0.90;;;22.70;44.00;;;;;;4424927;32;20173;-73
2021/05/26 12:38:45;;;;;;;1.97;0.93;;;22.40;45.80;;;;;;4424669;32;20170;-75
2021/05/26 12:41:26;;;;;;;2.97;1.07;;;22.40;44.70;;;;;;4424813;32;20147;-75
2021/05/26 12:43:56;;;;;;;2.30;0.90;;;22.70;45.50;;;;;;4425397;32;20147;-76
2021/05/26 12:46:49;;;;;;;3.27;1.00;;;23.60;45.10;;;;;;4423401;32;20547;-76
2021/05/26 12:49:46;;;;;;;2.23;1.00;;;22.70;44.00;;;;;;4425256;32;20217;-77
2021/05/26 12:52:28;;;;;;;1.73;0.87;;;22.10;45.60;;;;;;4425127;32;20150;-77
2021/05/26 12:54:55;;;;;;;2.43;0.80;;;22.00;46.90;;;;;;4425992;32;20206;-76
2021/05/26 12:57:25;;;;;;;1.50;0.83;;;21.30;47.80;;;;;;4424069;32;20208;-76
2021/05/26 12:59:58;;;;;;;2.40;0.80;;;21.00;47.70;;;;;;4425482;32;20204;-76
2021/05/26 13:02:31;;;;;;;6.00;0.97;;;20.90;48.80;;;;;;4424144;32;20408;-75
2021/05/26 13:04:59;;;;;;;2.80;0.87;;;21.00;49.00;;;;;;4424169;32;20200;-75